Latest Weather Observations for Newcastle Nobbys

IDN60801

Issued at 10:12 pm EST Monday 16 July 2018 (issued every 10 minutes, with the page automatically refreshed every 10 minutes)

About weather observations | Map of weather stations | Latest weather observations for NSW | Other Formats
Station Details ID: 061055 Name: NEWCASTLE NOBBYS SIGNAL STATION AWS Lat: -32.92 Lon: 151.80 Height: 33.0 m
Data from the previous 72 hours. | See also: Recent months at Newcastle Nobbys
Date/Time
EST
Temp
°C
App
Temp
°C
Dew
Point
°C
Rel
Hum
%
Delta-T
°C
Wind Press
QNH
hPa
Press
MSL
hPa
Rain since
9am
mm
Dir  Spd
km/h
Gust
km/h
Spd
kts
Gust
kts
16/10:00pm 12.2 6.1 -2.4 36 5.7 WNW 20 26 11 14 - - 0.0
16/09:30pm 12.5 5.9 -2.9 34 5.9 NW 22 30 12 16 - - 0.0
16/09:00pm 12.4 6.3 -2.6 35 5.8 WNW 20 24 11 13 - - 0.0
16/08:30pm 12.6 6.7 -2.4 35 5.9 NW 19 24 10 13 - - 0.0
16/08:00pm 12.6 7.6 -1.3 38 5.6 NW 15 20 8 11 - - 0.0
16/07:30pm 13.4 7.2 -2.9 32 6.4 NW 20 26 11 14 - - 0.0
16/07:00pm 13.3 8.5 -2.6 33 6.2 NW 13 17 7 9 - - 0.0
16/06:30pm 13.6 8.9 -1.9 34 6.2 WNW 13 19 7 10 - - 0.0
16/06:00pm 14.0 8.5 -2.0 33 6.4 NW 17 22 9 12 - - 0.0
16/05:30pm 14.6 9.1 -2.3 31 6.8 NW 17 22 9 12 - - 0.0
16/05:00pm 15.2 8.8 -1.4 32 6.8 NW 22 28 12 15 - - 0.0
16/04:30pm 16.1 10.4 -1.0 31 7.1 NW 19 24 10 13 - - 0.0
16/04:00pm 16.6 10.8 -0.1 32 7.1 NW 20 28 11 15 - - 0.0
16/03:30pm 16.6 9.8 -1.5 29 7.5 NW 24 32 13 17 - - 0.0
16/03:00pm 16.8 9.3 -1.3 29 7.6 NW 28 39 15 21 - - 0.0
16/02:30pm 16.8 10.9 -0.9 30 7.5 NW 20 32 11 17 - - 0.0
16/02:00pm 16.9 10.6 -1.2 29 7.6 WNW 22 33 12 18 - - 0.0
16/01:30pm 16.1 8.7 -1.0 31 7.1 NW 28 39 15 21 - - 0.0
16/01:00pm 15.9 8.6 -0.3 33 6.9 WNW 28 37 15 20 - - 0.0
16/12:30pm 15.0 7.9 -1.5 32 6.8 WNW 26 39 14 21 - - 0.0
16/12:00pm 14.5 6.3 -0.8 35 6.3 WNW 32 41 17 22 - - 0.0
16/11:30am 13.7 5.5 -0.7 37 5.9 NW 32 43 17 23 - - 0.0
16/11:00am 13.0 3.1 -0.6 39 5.6 NW 41 54 22 29 - - 0.0
16/10:30am 12.4 3.4 0.2 43 5.1 NW 37 46 20 25 - - 0.0
16/10:00am 11.5 3.5 0.6 47 4.5 NW 32 48 17 26 - - 0.0
16/09:30am 10.5 2.4 0.8 51 4.0 NW 33 41 18 22 - - 0.0
16/09:00am 9.4 2.5 0.1 52 3.7 WNW 26 35 14 19 - - 0.0
16/08:30am 8.3 0.8 -1.2 51 3.6 WNW 28 35 15 19 - - 0.0
16/08:00am 7.4 0.3 -1.5 53 3.4 WNW 26 39 14 21 - - 0.0
16/07:30am 6.8 0.1 -1.1 57 3.0 NW 24 28 13 15 - - 0.0
16/07:00am 6.1 0.1 -1.3 59 2.8 WNW 20 26 11 14 - - 0.0
16/06:30am 6.2 0.4 -1.4 58 2.8 WNW 19 26 10 14 - - 0.0
16/06:00am 6.1 1.9 -0.8 61 2.6 NW 11 15 6 8 - - 0.0
16/05:30am 6.5 1.1 -1.2 58 2.9 NW 17 20 9 11 - - 0.0
16/05:00am 6.6 0.9 -0.6 60 2.8 WNW 19 24 10 13 - - 0.0
16/04:30am 7.2 0.8 -1.7 53 3.3 WNW 22 28 12 15 - - 0.0
16/04:00am 7.3 1.9 -1.6 53 3.3 WNW 17 20 9 11 - - 0.0
16/03:30am 7.5 2.1 -1.2 54 3.3 WNW 17 20 9 11 - - 0.0
16/03:00am 6.9 1.6 -0.5 59 2.8 WNW 17 20 9 11 - - 0.0
16/02:30am 6.8 2.0 0.0 62 2.6 WNW 15 17 8 9 - - 0.0
16/02:00am 7.8 2.8 1.4 64 2.6 NW 17 20 9 11 - - 0.0
16/01:30am 7.7 3.9 1.5 65 2.5 NW 11 15 6 8 - - 0.0
16/01:00am 7.7 3.9 1.5 65 2.5 NW 11 13 6 7 - - 0.0
16/12:30am 8.5 4.3 1.6 62 2.8 NW 13 17 7 9 - - 0.0
16/12:00am 9.3 5.8 1.2 57 3.3 NW 9 13 5 7 - - 0.0
 
Date/Time
EST
Temp
°C
App
Temp
°C
Dew
Point
°C
Rel
Hum
%
Delta-T
°C
Wind Press
QNH
hPa
Press
MSL
hPa
Rain since
9am
mm
Dir  Spd
km/h
Gust
km/h
Spd
kts
Gust
kts
15/11:30pm 9.1 5.7 1.8 60 3.0 WNW 9 11 5 6 - - 0.0
15/11:00pm 9.4 5.8 2.9 64 2.8 NW 11 13 6 7 - - 0.0
15/10:30pm 9.9 6.0 3.4 64 2.8 NW 13 17 7 9 - - 0.0
15/10:00pm 9.6 5.8 1.8 58 3.3 NW 11 13 6 7 - - 0.0
15/09:30pm 10.1 5.5 1.7 56 3.5 WNW 15 19 8 10 - - 0.0
15/09:00pm 10.9 6.8 2.2 55 3.7 NW 13 15 7 8 - - 0.0
15/08:30pm 11.6 7.4 1.5 50 4.3 NNW 13 17 7 9 - - 0.0
15/08:00pm 12.0 8.5 3.3 55 3.8 NW 11 13 6 7 - - 0.0
15/07:30pm 12.5 8.8 2.4 50 4.4 NW 11 13 6 7 - - 0.0
15/07:00pm 13.1 10.3 5.0 58 3.8 NNW 9 13 5 7 - - 0.0
15/06:30pm 13.9 10.4 3.7 50 4.6 N 11 13 6 7 - - 0.0
15/06:00pm 14.3 10.6 2.5 45 5.2 NNW 11 11 6 6 - - 0.0
15/05:30pm 15.2 10.5 -1.8 31 6.9 NNW 13 17 7 9 - - 0.0
15/05:00pm 15.6 9.7 -1.0 32 6.9 NW 20 28 11 15 - - 0.0
15/04:30pm 16.5 10.4 -2.0 28 7.6 NW 20 28 11 15 - - 0.0
15/04:00pm 16.9 9.8 -4.3 23 8.3 NW 24 32 13 17 - - 0.0
15/03:30pm 17.1 10.0 -4.2 23 8.4 NW 24 35 13 19 - - 0.0
15/03:00pm 17.2 9.1 -6.6 19 8.9 NW 28 35 15 19 - - 0.0
15/02:30pm 17.1 10.2 -2.5 26 8.0 NW 24 33 13 18 - - 0.0
15/02:00pm 17.5 10.8 -4.4 22 8.6 WNW 22 30 12 16 - - 0.0
15/01:30pm 17.1 10.2 -2.5 26 8.0 NW 24 30 13 16 - - 0.0
15/01:00pm 16.9 10.1 -2.2 27 7.8 NW 24 33 13 18 - - 0.0
15/12:30pm 16.1 9.3 -1.9 29 7.4 WNW 24 32 13 17 - - 0.0
15/12:00pm 15.3 8.7 -0.4 34 6.6 WNW 24 30 13 16 - - 0.0
15/11:30am 14.5 7.6 0.0 37 6.1 NW 26 33 14 18 - - 0.0
15/11:00am 13.6 6.8 0.9 42 5.4 NW 26 33 14 18 - - 0.0
15/10:30am 12.8 5.3 1.2 45 4.9 WNW 30 35 16 19 - - 0.0
15/10:00am 11.7 4.9 1.1 48 4.4 WNW 26 35 14 19 - - 0.0
15/09:30am 10.2 3.9 1.8 56 3.5 NW 24 37 13 20 - - 0.0
15/09:00am 8.5 3.9 1.4 61 2.9 NW 15 22 8 12 - - 0.0
15/08:30am 6.8 1.8 1.1 67 2.3 NW 17 22 9 12 - - 0.0
15/08:00am 5.9 0.4 0.9 70 2.0 NW 19 22 10 12 - - 0.0
15/07:30am 5.3 0.6 0.9 73 1.7 NW 15 19 8 10 - - 0.0
15/07:00am 4.9 0.1 0.5 73 1.7 NW 15 19 8 10 - - 0.0
15/06:30am 5.1 0.3 0.5 72 1.8 NNW 15 17 8 9 - - 0.0
15/06:00am 5.5 0.0 0.7 71 1.9 NW 19 20 10 11 - - 0.0
15/05:30am 6.0 1.7 0.8 69 2.0 NW 13 17 7 9 - - 0.0
15/05:00am 6.1 0.7 1.1 70 2.0 NW 19 22 10 12 - - 0.0
15/04:30am 6.0 0.6 1.5 73 1.8 NW 19 22 10 12 - - 0.0
15/04:00am 6.3 1.4 1.8 73 1.8 NW 17 20 9 11 - - 0.0
15/03:30am 6.5 1.0 1.8 72 1.9 NW 20 28 11 15 - - 0.0
15/03:00am 6.5 1.3 2.4 75 1.7 NW 19 24 10 13 - - 0.0
15/02:30am 6.9 1.8 3.0 76 1.6 NW 19 24 10 13 - - 0.0
15/02:00am 7.5 3.1 4.5 81 1.3 NW 17 20 9 11 - - 0.0
15/01:30am 7.5 3.7 4.1 79 1.5 NW 13 15 7 8 - - 0.0
15/01:00am 7.6 4.2 4.2 79 1.5 NW 11 13 6 7 - - 0.0
15/12:30am 8.0 3.9 4.2 77 1.7 WNW 15 19 8 10 - - 0.0
15/12:00am 8.0 4.6 4.2 77 1.7 WNW 11 15 6 8 - - 0.0
 
Date/Time
EST
Temp
°C
App
Temp
°C
Dew
Point
°C
Rel
Hum
%
Delta-T
°C
Wind Press
QNH
hPa
Press
MSL
hPa
Rain since
9am
mm
Dir  Spd
km/h
Gust
km/h
Spd
kts
Gust
kts
14/11:30pm 8.5 5.2 4.7 77 1.7 WNW 11 15 6 8 - - 0.0
14/11:00pm 9.0 6.3 5.6 79 1.5 WNW 9 11 5 6 - - 0.0
14/10:30pm 9.1 6.6 6.4 83 1.2 WNW 9 13 5 7 - - 0.0
14/10:00pm 9.9 7.9 7.0 82 1.4 WNW 7 9 4 5 - - 0.0
14/09:30pm 10.9 9.2 7.6 80 1.6 WNW 6 7 3 4 - - 0.0
14/09:00pm 10.9 9.0 6.5 74 2.1 WNW 6 9 3 5 - - 0.0
14/08:30pm 11.5 9.1 7.0 74 2.2 W 9 11 5 6 - - 0.0
14/08:00pm 11.6 9.2 6.9 73 2.2 W 9 11 5 6 - - 0.0
14/07:30pm 12.5 10.8 7.4 71 2.5 W 6 9 3 5 - - 0.0
14/07:00pm 12.7 10.7 7.2 69 2.7 WNW 7 9 4 5 - - 0.0
14/06:30pm 14.2 11.5 5.6 56 4.1 S 9 15 5 8 - - 0.0
14/06:00pm 14.1 11.1 6.0 58 3.9 SSW 11 15 6 8 - - 0.0
14/05:30pm 14.1 10.7 5.7 57 4.0 S 13 17 7 9 - - 0.0
14/05:00pm 14.2 10.8 6.1 58 3.9 S 13 17 7 9 - - 0.0
14/04:30pm 14.4 10.8 5.2 54 4.3 S 13 17 7 9 - - 0.0
14/04:00pm 14.8 11.2 5.1 52 4.6 S 13 19 7 10 - - 0.0
14/03:30pm 14.7 10.7 5.0 52 4.6 S 15 20 8 11 - - 0.0
14/03:00pm 14.7 9.7 4.7 51 4.7 S 20 26 11 14 - - 0.0
14/02:30pm 14.8 9.7 3.9 48 5.0 S 20 24 11 13 - - 0.0
14/02:00pm 15.4 11.3 4.2 47 5.2 SSW 15 24 8 13 - - 0.0
14/01:30pm 17.6 13.4 3.9 40 6.4 WNW 15 20 8 11 - - 0.0
14/01:00pm 17.9 15.1 5.2 43 6.1 WSW 9 15 5 8 - - 0.0
14/12:30pm 17.6 14.5 5.5 45 5.9 W 11 17 6 9 - - 0.0
14/12:00pm 16.6 13.4 5.3 47 5.4 WNW 11 19 6 10 - - 0.0
14/11:30am 15.7 11.7 4.7 48 5.2 WNW 15 22 8 12 - - 0.0
14/11:00am 14.5 10.1 5.0 53 4.5 WNW 17 22 9 12 - - 0.0
14/10:30am 13.1 9.1 4.8 57 3.8 NW 15 19 8 10 - - 0.0
14/10:00am 12.1 7.6 4.1 58 3.6 NW 17 22 9 12 - - 0.0
14/09:30am 10.8 6.1 3.1 59 3.4 NW 17 20 9 11 - - 0.0
14/09:00am 10.2 5.6 3.5 63 2.9 NW 17 22 9 12 - - 0.0
14/08:30am 8.9 4.1 2.5 64 2.7 WNW 17 24 9 13 - - 0.0
14/08:00am 7.9 2.7 2.4 68 2.3 WNW 19 24 10 13 - - 0.0
14/07:30am 7.0 2.5 2.1 71 2.0 WNW 15 19 8 10 - - 0.0
14/07:00am 7.0 1.8 2.5 73 1.9 NW 19 22 10 12 - - 0.0
14/06:30am 6.9 2.0 2.2 72 1.9 NW 17 24 9 13 - - 0.0
14/06:00am 7.0 2.5 2.3 72 1.9 NW 15 19 8 10 - - 0.0
14/05:30am 7.0 2.5 2.1 71 2.0 NW 15 17 8 9 - - 0.0
14/05:00am 7.3 2.9 2.6 72 2.0 NW 15 19 8 10 - - 0.0
14/04:30am 7.6 3.2 2.5 70 2.1 NW 15 19 8 10 - - 0.0
14/04:00am 7.8 3.4 2.7 70 2.1 NW 15 20 8 11 - - 0.0
14/03:30am 7.8 3.7 2.5 69 2.2 WNW 13 17 7 9 - - 0.0
14/03:00am 8.1 3.7 2.6 68 2.3 WNW 15 19 8 10 - - 0.0
14/02:30am 8.3 3.8 2.3 66 2.5 WNW 15 19 8 10 - - 0.0
14/02:00am 8.8 4.4 2.6 65 2.6 WNW 15 19 8 10 - - 0.0
14/01:30am 9.2 5.2 3.0 65 2.7 W 13 17 7 9 - - 0.0
14/01:00am 9.1 5.5 2.9 65 2.6 WNW 11 15 6 8 - - 0.0
14/12:30am 9.3 5.3 3.1 65 2.7 WNW 13 17 7 9 - - 0.0
14/12:00am 9.3 5.4 3.3 66 2.6 WNW 13 17 7 9 - - 0.0
 
Date/Time
EST
Temp
°C
App
Temp
°C
Dew
Point
°C
Rel
Hum
%
Delta-T
°C
Wind Press
QNH
hPa
Press
MSL
hPa
Rain since
9am
mm
Dir  Spd
km/h
Gust
km/h
Spd
kts
Gust
kts
13/11:30pm 9.9 6.4 3.6 65 2.8 WNW 11 15 6 8 - - 0.0
13/11:00pm 10.2 6.8 3.9 65 2.8 NW 11 17 6 9 - - 0.0
13/10:30pm 11.5 6.8 3.3 57 3.6 WNW 17 20 9 11 - - 0.0

Other Formats:

Comma delimited format used in spreadsheet applications
http://www.bom.gov.au/fwo/IDN60801/IDN60801.94774.axf

JavaScript Object Notation format (JSON) in row-major order
http://www.bom.gov.au/fwo/IDN60801/IDN60801.94774.json